Weather at West Houston Airport

Public forecast

Using degrees Fahrenheit for public forecast. Weather courtesy of forecast.io.

Closest aviation weather report (METAR) to West Houston Airport

Closest report is Houston Executive Airport, 11.8 nm (21.8 km) W. Retrieved 2022/01/25 05:15 UTC (15 minutes ago):

KTME 250515Z AUTO 05005KT 9SM BKN017 OVC030 09/09 A2991 RMK AO2

Closest aviation forecast (TAF) to West Houston Airport

Closest forecast is Sugar Land Regional Airport, 11.8 nm (21.8 km) S. Retrieved 2022-01-25 00:42 UTC (5 hours ago):

TAF KSGR 242340Z 2500/2524 10008KT 4SM -SHRA OVC007 FM250300 36007KT 6SM BR VCSH FEW005 OVC007 FM250800 33006KT 4SM BR OVC003 FM251100 01005KT 1SM BR OVC003 FM251600 02009KT 5SM BR OVC007 FM251900 03008KT P6SM OVC015